Time;durP1;ratioP1;P1;durP2;ratioP2;P2;SDS_P1;SDS_P2;PMS_P1;PMS_P2;Temp;Humidity;BMP_temperature;BMP_pressure;BME280_temperature;BME280_humidity;BME280_pressure;Samples;Min_cycle;Max_cycle;Signal;HPM_P1;HPM_P2
2023/07/03 00:01:50;;;;;;;1.90;1.80;;;;;;;19.73;58.22;101005.50;5089192;28;20047;-78
2023/07/03 00:04:17;;;;;;;0.30;0.30;;;;;;;19.72;57.73;100993.84;5090586;28;20039;-79
2023/07/03 00:06:45;;;;;;;0.95;0.95;;;;;;;19.70;58.48;100990.41;5098995;28;20016;-79
2023/07/03 00:09:11;;;;;;;0.30;0.30;;;;;;;19.73;58.27;100997.44;5089359;28;20108;-77
2023/07/03 00:11:37;;;;;;;0.17;0.17;;;;;;;19.77;57.57;100984.69;5099462;28;20043;-78
2023/07/03 00:14:03;;;;;;;3.63;2.17;;;;;;;19.66;57.45;100994.19;5095433;28;20032;-78
2023/07/03 00:16:29;;;;;;;0.17;0.17;;;;;;;19.78;57.13;100991.81;5091201;28;20043;-78
2023/07/03 00:18:55;;;;;;;0.00;0.00;;;;;;;19.69;57.05;100996.72;5090539;28;20452;-78
2023/07/03 00:21:21;;;;;;;0.35;0.35;;;;;;;19.73;56.86;100995.59;5091793;28;20020;-81
2023/07/03 00:23:48;;;;;;;0.28;0.28;;;;;;;19.64;57.29;100990.75;5090453;28;20035;-78
2023/07/03 00:26:14;;;;;;;0.28;0.28;;;;;;;19.62;57.54;100986.41;5085125;28;20032;-77
2023/07/03 00:28:40;;;;;;;0.35;0.35;;;;;;;19.60;57.65;100985.63;5085387;28;20024;-78
2023/07/03 00:31:06;;;;;;;1.38;1.30;;;;;;;19.49;57.84;100991.59;5093026;28;20024;-78
2023/07/03 00:33:32;;;;;;;30.02;1.50;;;;;;;19.50;57.88;100990.63;5089310;28;20569;-80
2023/07/03 00:35:58;;;;;;;1.00;0.47;;;;;;;19.47;57.96;100993.50;5088758;28;20025;-77
2023/07/03 00:38:25;;;;;;;0.00;0.00;;;;;;;19.44;57.83;100989.16;5094282;28;20058;-78
2023/07/03 00:40:51;;;;;;;2.20;0.73;;;;;;;19.45;57.74;100990.03;5089103;28;20093;-78
2023/07/03 00:43:17;;;;;;;0.90;0.63;;;;;;;19.38;58.21;100987.66;5089325;28;20062;-78
2023/07/03 00:45:43;;;;;;;0.00;0.00;;;;;;;19.42;58.78;100996.44;5087894;28;20107;-78
2023/07/03 00:48:10;;;;;;;16.35;1.17;;;;;;;19.44;58.43;100999.03;5092662;28;20617;-79
2023/07/03 00:50:36;;;;;;;0.10;0.10;;;;;;;19.38;58.28;100992.19;5087782;28;20415;-79
2023/07/03 00:53:05;;;;;;;0.75;0.75;;;;;;;19.43;58.65;100999.97;5089154;28;20023;-79
2023/07/03 00:55:32;;;;;;;0.28;0.28;;;;;;;19.44;58.37;100999.03;5089110;28;20025;-77
2023/07/03 00:57:58;;;;;;;1.45;1.17;;;;;;;19.39;58.40;100989.41;5089176;28;20036;-78
2023/07/03 01:00:32;;;;;;;0.20;0.20;;;;;;;19.47;58.07;100993.50;5090466;28;20043;-78
2023/07/03 01:03:09;;;;;;;0.57;0.57;;;;;;;19.45;58.22;100990.03;5093865;28;20051;-78
2023/07/03 01:05:43;;;;;;;0.10;0.10;;;;;;;19.37;58.64;100990.47;5094956;28;20039;-78
2023/07/03 01:08:11;;;;;;;0.20;0.20;;;;;;;19.34;58.55;100988.81;5090392;28;20035;-79
2023/07/03 01:10:38;;;;;;;0.10;0.10;;;;;;;19.35;58.63;100985.16;5090323;28;20047;-78
2023/07/03 01:13:09;;;;;;;0.15;0.15;;;;;;;19.34;58.87;100988.81;5090572;28;20013;-79
2023/07/03 01:15:39;;;;;;;0.10;0.10;;;;;;;19.30;59.25;100981.00;5090132;28;20024;-77
2023/07/03 01:18:07;;;;;;;0.10;0.10;;;;;;;19.31;58.93;100974.66;5088999;28;20021;-79
2023/07/03 01:20:56;;;;;;;0.00;0.00;;;;;;;19.31;59.53;100994.31;5090162;28;20021;-78
2023/07/03 01:23:33;;;;;;;0.38;0.38;;;;;;;19.39;58.97;100981.34;5090004;28;20115;-79
2023/07/03 01:26:00;;;;;;;0.10;0.10;;;;;;;19.30;59.91;100987.25;5096890;28;20088;-77
2023/07/03 01:28:28;;;;;;;0.00;0.00;;;;;;;19.38;59.50;100985.00;5097081;28;20028;-79
2023/07/03 01:30:55;;;;;;;0.20;0.20;;;;;;;19.44;59.46;100980.22;5097457;28;20028;-78
2023/07/03 01:33:30;;;;;;;0.08;0.08;;;;;;;19.38;59.96;100982.31;5088261;28;20017;-78
2023/07/03 01:35:58;;;;;;;0.15;0.15;;;;;;;19.43;59.73;100981.16;5088158;28;20107;-79
2023/07/03 01:38:25;;;;;;;0.00;0.00;;;;;;;19.31;60.08;100978.22;5094266;28;20016;-79
2023/07/03 01:40:54;;;;;;;0.73;0.73;;;;;;;19.40;59.68;100975.03;5091489;28;20029;-79
2023/07/03 01:43:21;;;;;;;0.80;0.80;;;;;;;19.46;59.41;100984.56;5088027;28;20031;-78
2023/07/03 01:45:48;;;;;;;3.03;1.67;;;;;;;19.38;59.55;100974.25;5093152;28;20027;-79
2023/07/03 01:48:15;;;;;;;23.17;2.22;;;;;;;19.50;59.34;100972.72;5089208;28;20424;-78
2023/07/03 01:50:44;;;;;;;4.03;1.55;;;;;;;19.44;59.49;100975.75;5103699;28;20028;-79
2023/07/03 01:56:17;;;;;;;0.65;0.15;;;;;;;19.54;59.60;100968.88;5084828;27;20401;-79
2023/07/03 01:58:47;;;;;;;0.35;0.35;;;;;;;19.63;59.13;100967.50;5076670;28;20457;-79
2023/07/03 02:01:20;;;;;;;0.75;0.75;;;;;;;19.68;58.62;100972.63;5054919;28;20033;-80
2023/07/03 02:03:56;;;;;;;41.58;1.75;;;;;;;19.58;58.83;100972.28;5038741;28;20089;-78
2023/07/03 02:06:27;;;;;;;0.10;0.10;;;;;;;19.61;58.14;100969.41;5043287;28;20036;-80
2023/07/03 02:08:54;;;;;;;0.40;0.40;;;;;;;19.59;57.36;100976.69;5053917;28;20033;-81
2023/07/03 02:11:23;;;;;;;0.80;0.80;;;;;;;19.53;57.23;100960.91;5061282;28;20063;-78
2023/07/03 02:13:49;;;;;;;0.10;0.10;;;;;;;19.55;55.94;100972.44;5058135;28;20029;-79
2023/07/03 02:16:16;;;;;;;0.10;0.10;;;;;;;19.51;55.69;100965.50;5052547;28;20040;-81
2023/07/03 02:18:43;;;;;;;0.10;0.10;;;;;;;19.65;55.64;100968.28;5042210;28;20095;-82
2023/07/03 02:21:09;;;;;;;0.10;0.10;;;;;;;19.66;55.25;100967.31;5049508;28;20048;-81
2023/07/03 02:23:35;;;;;;;0.10;0.10;;;;;;;19.64;54.49;100961.19;5058700;28;20028;-81
2023/07/03 02:26:01;;;;;;;0.08;0.08;;;;;;;19.63;52.35;100958.59;5047074;28;20460;-81
2023/07/03 02:28:27;;;;;;;0.10;0.10;;;;;;;19.61;51.09;100963.19;5044925;28;20025;-82
2023/07/03 02:30:54;;;;;;;6.97;2.20;;;;;;;19.63;51.37;100964.81;5048632;28;20029;-81
2023/07/03 02:33:20;;;;;;;0.10;0.10;;;;;;;19.50;49.14;100967.34;5046726;28;20053;-80
2023/07/03 02:35:46;;;;;;;0.10;0.10;;;;;;;19.61;49.25;100963.19;5046124;28;20056;-81
2023/07/03 02:38:12;;;;;;;0.10;0.10;;;;;;;19.68;50.39;100969.94;5036567;28;20037;-81
2023/07/03 02:40:38;;;;;;;0.00;0.00;;;;;;;19.70;49.29;100965.31;5053918;28;20033;-81
2023/07/03 02:43:04;;;;;;;0.00;0.00;;;;;;;19.58;45.84;100966.00;5045824;28;20033;-82
2023/07/03 02:45:40;;;;;;;0.10;0.10;;;;;;;19.69;47.43;100972.53;5046988;28;20623;-81
2023/07/03 02:48:08;;;;;;;0.30;0.30;;;;;;;19.57;45.24;100967.84;5046666;28;20100;-80
2023/07/03 02:50:34;;;;;;;0.00;0.00;;;;;;;19.59;45.53;100967.75;5045125;28;20053;-81
2023/07/03 02:53:01;;;;;;;0.10;0.10;;;;;;;19.60;45.15;100974.88;5052292;28;20033;-81
2023/07/03 02:55:27;;;;;;;0.08;0.08;;;;;;;19.53;45.80;100982.41;5050982;28;20398;-81
2023/07/03 02:57:57;;;;;;;0.20;0.20;;;;;;;19.62;45.33;100967.59;5044851;28;20029;-80
2023/07/03 03:00:24;;;;;;;0.00;0.00;;;;;;;19.62;45.76;100970.28;5042590;28;20068;-79
2023/07/03 03:02:50;;;;;;;0.00;0.00;;;;;;;19.56;44.60;100968.78;5047210;28;20079;-81
2023/07/03 03:05:16;;;;;;;2.17;1.13;;;;;;;19.47;43.30;100980.06;5039456;28;20029;-82
2023/07/03 03:07:42;;;;;;;0.00;0.00;;;;;;;19.57;43.71;100965.16;5030380;28;20036;-82
2023/07/03 03:10:09;;;;;;;0.20;0.20;;;;;;;19.57;43.14;100967.84;5033215;28;20057;-81
2023/07/03 03:12:35;;;;;;;0.00;0.00;;;;;;;19.51;42.49;100965.50;5037246;28;20026;-79
2023/07/03 03:15:01;;;;;;;0.52;0.50;;;;;;;19.53;42.83;100955.53;5039764;28;20478;-81
2023/07/03 03:17:27;;;;;;;0.50;0.50;;;;;;;19.38;41.17;100947.38;5040832;28;20079;-81
2023/07/03 03:19:53;;;;;;;1.27;0.50;;;;;;;19.48;42.05;100952.25;5040784;28;20048;-80
2023/07/03 03:22:19;;;;;;;0.10;0.10;;;;;;;19.45;41.30;100960.47;5029402;28;20518;-80
2023/07/03 03:24:46;;;;;;;0.10;0.10;;;;;;;19.46;41.48;100954.16;5037102;28;20044;-81
2023/07/03 03:27:12;;;;;;;0.00;0.00;;;;;;;19.50;42.38;100961.06;5042959;28;20110;-80
2023/07/03 03:29:38;;;;;;;0.10;0.10;;;;;;;19.45;41.72;100952.41;5038627;28;20037;-81
2023/07/03 03:32:05;;;;;;;0.00;0.00;;;;;;;19.54;42.39;100946.53;5041011;28;20049;-81
2023/07/03 03:34:34;;;;;;;0.05;0.05;;;;;;;19.44;41.60;100956.03;5030111;28;20088;-82
2023/07/03 03:37:01;;;;;;;0.00;0.00;;;;;;;19.38;41.55;100958.13;5034006;28;20033;-81
2023/07/03 03:39:27;;;;;;;0.10;0.10;;;;;;;19.25;42.25;100962.44;5043719;28;20014;-81
2023/07/03 03:41:53;;;;;;;0.00;0.00;;;;;;;19.36;42.28;100964.53;5043708;28;20041;-80
2023/07/03 03:44:19;;;;;;;0.45;0.45;;;;;;;19.31;42.34;100964.78;5032945;28;20029;-80
2023/07/03 03:46:45;;;;;;;0.00;0.00;;;;;;;19.21;42.30;100966.25;5038204;28;20088;-80
2023/07/03 03:49:11;;;;;;;0.88;0.77;;;;;;;19.24;42.74;100961.56;5037780;28;20037;-79
2023/07/03 03:51:38;;;;;;;0.15;0.15;;;;;;;19.29;42.65;100964.00;5032336;28;20705;-79
2023/07/03 03:54:04;;;;;;;0.00;0.00;;;;;;;19.23;42.71;100967.03;5033733;28;20033;-79
2023/07/03 03:56:31;;;;;;;0.00;0.00;;;;;;;19.28;42.92;100967.66;5039704;28;20037;-80
2023/07/03 03:58:57;;;;;;;0.00;0.00;;;;;;;19.17;43.37;100967.38;5039706;28;20051;-81
2023/07/03 04:01:23;;;;;;;0.10;0.10;;;;;;;19.21;43.41;100966.25;5035858;28;20036;-81
2023/07/03 04:03:52;;;;;;;0.00;0.00;;;;;;;19.27;43.58;100970.44;5030345;28;20056;-81
2023/07/03 04:06:18;;;;;;;0.75;0.75;;;;;;;19.17;43.60;100964.69;5034570;28;20124;-79
2023/07/03 04:08:45;;;;;;;0.03;0.03;;;;;;;19.06;43.62;100968.78;5039064;28;20041;-80
2023/07/03 04:11:11;;;;;;;0.00;0.00;;;;;;;18.92;43.86;100976.72;5026425;28;20034;-80
2023/07/03 04:13:37;;;;;;;0.00;0.00;;;;;;;19.10;43.75;100974.88;5028962;28;20505;-81
2023/07/03 04:16:04;;;;;;;0.10;0.10;;;;;;;19.10;43.90;100984.75;5036084;28;20045;-79
2023/07/03 04:18:31;;;;;;;0.10;0.10;;;;;;;19.06;43.88;100982.22;5032619;28;20040;-81
2023/07/03 04:20:58;;;;;;;0.10;0.10;;;;;;;19.08;43.89;100980.31;5031893;28;20029;-81
2023/07/03 04:23:25;;;;;;;0.25;0.25;;;;;;;19.11;44.05;100986.50;5036752;28;20029;-82
2023/07/03 04:25:52;;;;;;;0.00;0.00;;;;;;;19.19;44.28;100982.44;5035430;28;20518;-81
2023/07/03 04:28:20;;;;;;;0.00;0.00;;;;;;;19.13;44.51;100979.19;5031498;28;20029;-78
2023/07/03 04:30:47;;;;;;;0.20;0.20;;;;;;;19.22;44.53;100984.09;5029099;28;20129;-78
2023/07/03 04:33:13;;;;;;;0.10;0.10;;;;;;;19.16;44.63;100984.44;5027992;28;20034;-77
2023/07/03 04:35:40;;;;;;;0.00;0.00;;;;;;;19.14;44.73;100983.63;5033687;28;20029;-78
2023/07/03 04:38:06;;;;;;;0.08;0.08;;;;;;;19.12;44.43;100983.72;5044046;28;20080;-77
2023/07/03 04:40:33;;;;;;;0.00;0.00;;;;;;;19.18;45.01;100985.22;5046705;28;20021;-76
2023/07/03 04:42:59;;;;;;;0.10;0.10;;;;;;;19.12;44.85;100989.09;5037541;28;20086;-77
2023/07/03 04:45:27;;;;;;;1.45;0.57;;;;;;;19.20;45.13;100978.81;5028497;28;20067;-78
2023/07/03 04:47:54;;;;;;;0.10;0.10;;;;;;;19.21;44.94;100990.41;5032747;28;20036;-78
2023/07/03 04:50:24;;;;;;;0.08;0.08;;;;;;;19.24;44.92;100982.22;5027544;28;20030;-78
2023/07/03 04:52:51;;;;;;;0.22;0.22;;;;;;;19.11;44.83;100992.72;5034352;28;20034;-76
2023/07/03 04:55:18;;;;;;;1.75;1.50;;;;;;;19.10;45.06;100984.75;5033104;28;20037;-78
2023/07/03 04:57:44;;;;;;;0.10;0.10;;;;;;;19.12;45.42;100989.09;5039267;28;20037;-77
2023/07/03 05:00:15;;;;;;;0.00;0.00;;;;;;;19.24;45.26;100991.13;5034498;28;20037;-78
2023/07/03 05:02:43;;;;;;;0.00;0.00;;;;;;;19.27;45.35;100987.41;5033845;28;20498;-77
2023/07/03 05:05:10;;;;;;;0.10;0.10;;;;;;;19.26;45.30;100995.53;5035176;28;20033;-77
2023/07/03 05:07:38;;;;;;;2.40;0.85;;;;;;;19.30;45.24;100992.63;5036311;28;20100;-78
2023/07/03 05:10:04;;;;;;;4.85;0.90;;;;;;;19.19;45.20;100995.00;5039129;28;20034;-77
2023/07/03 05:12:31;;;;;;;0.00;0.00;;;;;;;19.27;45.72;100999.97;5044185;28;20028;-80
2023/07/03 05:14:57;;;;;;;6.60;2.47;;;;;;;19.25;45.48;101000.03;5024659;28;20160;-81
2023/07/03 05:17:23;;;;;;;0.00;0.00;;;;;;;19.24;45.44;101001.00;5030386;28;20044;-81
2023/07/03 05:19:50;;;;;;;0.00;0.00;;;;;;;19.19;45.49;100995.88;5029354;28;20443;-82
2023/07/03 05:22:16;;;;;;;0.10;0.10;;;;;;;19.27;45.75;101000.81;5030848;28;20849;-81
2023/07/03 05:24:42;;;;;;;20.17;0.80;;;;;;;19.27;45.82;100992.78;5023107;28;20044;-79
2023/07/03 05:27:08;;;;;;;0.10;0.10;;;;;;;19.34;45.75;101004.94;5034165;28;20036;-80
2023/07/03 05:29:34;;;;;;;0.10;0.10;;;;;;;19.34;45.53;101002.25;5029732;28;20029;-80
2023/07/03 05:32:01;;;;;;;0.00;0.00;;;;;;;19.32;45.50;101012.19;5021012;28;20037;-81
2023/07/03 05:34:28;;;;;;;0.20;0.20;;;;;;;19.47;46.05;101015.84;5026801;28;20048;-80
2023/07/03 05:36:54;;;;;;;0.10;0.10;;;;;;;19.53;45.42;101009.28;5029108;28;20515;-81
2023/07/03 05:39:20;;;;;;;0.10;0.10;;;;;;;19.46;45.52;101003.38;5029886;28;20162;-82
2023/07/03 05:41:46;;;;;;;0.05;0.05;;;;;;;19.54;45.51;101013.72;5024159;28;20049;-80
2023/07/03 05:44:12;;;;;;;0.00;0.00;;;;;;;19.42;46.30;101017.06;5028481;28;20076;-80
2023/07/03 05:46:38;;;;;;;0.10;0.10;;;;;;;19.41;46.14;101026.94;5018963;28;20034;-80
2023/07/03 05:49:04;;;;;;;0.00;0.00;;;;;;;19.47;46.06;101021.22;5032044;28;20103;-81
2023/07/03 05:51:30;;;;;;;0.40;0.40;;;;;;;19.55;46.25;101024.38;5028830;28;20029;-79
2023/07/03 05:53:56;;;;;;;0.10;0.10;;;;;;;19.49;45.72;101023.81;5029847;28;20030;-77
2023/07/03 05:56:25;;;;;;;0.55;0.15;;;;;;;19.50;45.73;101020.19;5034258;28;20075;-79
2023/07/03 05:58:51;;;;;;;0.00;0.00;;;;;;;19.54;45.94;101021.78;5036306;28;20029;-80
2023/07/03 06:01:18;;;;;;;1.65;1.45;;;;;;;19.63;45.67;101021.25;5032451;28;20287;-78
2023/07/03 06:03:44;;;;;;;0.38;0.38;;;;;;;19.63;45.90;101021.25;5031777;28;20025;-80
2023/07/03 06:06:12;;;;;;;0.10;0.10;;;;;;;19.65;45.56;101022.06;5032230;28;20026;-80
2023/07/03 06:08:38;;;;;;;0.30;0.30;;;;;;;19.58;45.14;101012.59;5024587;28;20090;-80
2023/07/03 06:11:04;;;;;;;0.10;0.10;;;;;;;19.57;43.99;101010.84;5016966;28;20096;-80
2023/07/03 06:13:31;;;;;;;0.00;0.00;;;;;;;19.77;44.63;101022.31;5022036;28;20018;-80
2023/07/03 06:15:57;;;;;;;0.10;0.10;;;;;;;19.63;44.27;101015.03;5031214;28;20061;-79
2023/07/03 06:18:23;;;;;;;0.10;0.10;;;;;;;19.88;44.48;101019.94;5028720;28;20037;-80
2023/07/03 06:20:50;;;;;;;0.00;0.00;;;;;;;19.83;44.83;101016.63;5040075;28;20041;-79
2023/07/03 06:23:16;;;;;;;0.10;0.10;;;;;;;19.88;44.98;101009.16;5036361;28;20033;-80
2023/07/03 06:25:42;;;;;;;0.00;0.00;;;;;;;19.77;45.05;101023.19;5039509;28;20049;-79
2023/07/03 06:28:08;;;;;;;0.10;0.10;;;;;;;19.83;45.16;101011.25;5038847;28;20411;-79
2023/07/03 06:30:34;;;;;;;0.10;0.10;;;;;;;19.74;45.43;101023.38;5030844;28;20554;-78
2023/07/03 06:33:00;;;;;;;0.25;0.25;;;;;;;19.59;44.71;101025.09;5043250;28;20056;-80
2023/07/03 06:35:26;;;;;;;0.10;0.10;;;;;;;19.59;44.94;101022.41;5035802;28;20068;-79
2023/07/03 06:37:53;;;;;;;0.00;0.00;;;;;;;19.64;44.61;101020.31;5037113;28;20025;-79
2023/07/03 06:40:19;;;;;;;0.10;0.10;;;;;;;19.62;44.85;101024.91;5043046;28;20022;-81
2023/07/03 06:42:45;;;;;;;0.05;0.05;;;;;;;19.71;44.79;101020.81;5045918;28;20035;-79
2023/07/03 06:45:12;;;;;;;4.68;1.35;;;;;;;19.78;45.09;101032.97;5046080;28;20081;-79
2023/07/03 06:47:38;;;;;;;0.00;0.00;;;;;;;19.78;45.43;101045.56;5040248;28;20036;-81
2023/07/03 06:50:05;;;;;;;0.00;0.00;;;;;;;19.80;45.19;101041.84;5039863;28;20041;-78
2023/07/03 06:52:35;;;;;;;6.18;1.00;;;;;;;19.70;44.95;101033.41;5040289;28;20026;-80
2023/07/03 06:55:01;;;;;;;0.00;0.00;;;;;;;19.77;45.29;101039.31;5032385;28;20080;-80
2023/07/03 06:57:27;;;;;;;0.00;0.00;;;;;;;19.63;44.89;101042.75;5042090;28;20025;-79
2023/07/03 06:59:53;;;;;;;1.65;0.75;;;;;;;19.68;45.02;101034.47;5037940;28;20037;-79
2023/07/03 07:02:19;;;;;;;0.10;0.10;;;;;;;19.49;45.13;101034.56;5053794;28;20032;-78
2023/07/03 07:04:45;;;;;;;0.15;0.15;;;;;;;19.78;44.76;101053.63;5047758;28;20037;-78
2023/07/03 07:07:11;;;;;;;0.10;0.10;;;;;;;19.73;45.23;101052.06;5045955;28;20029;-80
2023/07/03 07:09:40;;;;;;;0.10;0.10;;;;;;;19.82;44.64;101036.38;5038744;28;20037;-83
2023/07/03 07:12:06;;;;;;;0.00;0.00;;;;;;;19.80;43.98;101039.16;5032826;28;20575;-79
2023/07/03 07:14:32;;;;;;;0.00;0.00;;;;;;;19.86;44.25;101046.91;5040431;28;20079;-81
2023/07/03 07:16:58;;;;;;;0.00;0.00;;;;;;;20.01;44.89;101047.88;5042200;28;20048;-80
2023/07/03 07:19:24;;;;;;;0.20;0.20;;;;;;;20.11;44.73;101050.03;5043887;28;20026;-77
2023/07/03 07:21:51;;;;;;;0.30;0.30;;;;;;;20.04;45.01;101036.91;5040883;28;20756;-79
2023/07/03 07:26:58;;;;;;;0.00;0.00;;;;;;;20.27;44.86;101037.41;5074353;28;20875;-79
2023/07/03 07:29:25;;;;;;;0.30;0.30;;;;;;;20.35;44.89;101037.00;5069929;28;20055;-79
2023/07/03 07:31:55;;;;;;;0.10;0.10;;;;;;;20.43;45.38;101036.53;5071310;28;20024;-77
2023/07/03 07:34:22;;;;;;;0.10;0.10;;;;;;;20.52;45.63;101044.94;5065002;28;20028;-77
2023/07/03 07:36:48;;;;;;;1.38;0.63;;;;;;;20.64;45.63;101043.34;5071239;28;20100;-78
2023/07/03 07:39:14;;;;;;;0.10;0.10;;;;;;;20.78;46.09;101047.06;5062715;28;20059;-78
2023/07/03 07:41:40;;;;;;;0.10;0.10;;;;;;;20.87;44.56;101046.50;5070609;28;20074;-78
2023/07/03 07:44:06;;;;;;;0.10;0.10;;;;;;;20.99;44.21;101051.16;5071226;28;20400;-78
2023/07/03 07:46:35;;;;;;;0.20;0.20;;;;;;;21.08;43.57;101055.13;5070376;28;20020;-77
2023/07/03 07:49:01;;;;;;;0.60;0.60;;;;;;;21.08;42.55;101032.72;5068824;28;20336;-78
2023/07/03 07:51:27;;;;;;;0.10;0.10;;;;;;;21.24;42.63;101040.72;5069862;28;20036;-78
2023/07/03 07:53:55;;;;;;;0.10;0.10;;;;;;;21.21;41.42;101044.47;5068924;28;20032;-78
2023/07/03 07:56:22;;;;;;;1.85;1.30;;;;;;;21.12;40.88;101045.91;5067037;28;20017;-77
2023/07/03 07:58:49;;;;;;;0.10;0.10;;;;;;;21.16;41.27;101049.28;5070117;28;20109;-78
2023/07/03 08:01:15;;;;;;;0.10;0.10;;;;;;;21.23;41.74;101047.91;5071440;28;20110;-78
2023/07/03 08:03:43;;;;;;;0.00;0.00;;;;;;;21.37;41.53;101048.91;5071273;28;20021;-77
2023/07/03 08:06:10;;;;;;;0.10;0.10;;;;;;;21.48;42.11;101039.19;5069712;28;20091;-78
2023/07/03 08:08:36;;;;;;;0.10;0.10;;;;;;;21.57;40.65;101050.38;5064556;28;20025;-78
2023/07/03 08:11:05;;;;;;;0.10;0.10;;;;;;;21.66;40.92;101055.19;5071689;28;20495;-79
2023/07/03 08:13:34;;;;;;;0.10;0.10;;;;;;;21.53;40.08;101048.81;5069359;28;20485;-84
2023/07/03 08:16:00;;;;;;;0.85;0.52;;;;;;;21.18;40.09;101055.44;5069184;28;20025;-83
2023/07/03 08:18:27;;;;;;;0.00;0.00;;;;;;;21.20;41.03;101067.00;5069498;28;20037;-78
2023/07/03 08:20:53;;;;;;;0.10;0.10;;;;;;;21.09;41.32;101066.78;5072463;28;20040;-79
2023/07/03 08:23:20;;;;;;;0.00;0.00;;;;;;;21.04;41.50;101067.06;5070020;28;20025;-77
2023/07/03 08:25:52;;;;;;;0.30;0.30;;;;;;;21.09;41.47;101066.78;5069000;28;20098;-78
2023/07/03 08:28:19;;;;;;;0.30;0.30;;;;;;;21.09;41.90;101082.94;5069575;28;20090;-79
2023/07/03 08:30:45;;;;;;;0.00;0.00;;;;;;;21.22;42.24;101080.34;5068933;28;20060;-79
2023/07/03 08:33:13;;;;;;;0.10;0.10;;;;;;;21.32;42.35;101082.41;5074888;28;20040;-78
2023/07/03 08:35:40;;;;;;;0.98;0.98;;;;;;;21.37;42.31;101078.53;5079259;28;20017;-79
2023/07/03 08:38:08;;;;;;;0.15;0.15;;;;;;;21.30;40.90;101078.06;5071268;28;20029;-79
2023/07/03 08:40:35;;;;;;;0.15;0.15;;;;;;;21.43;41.51;101080.88;5069579;28;20048;-78
2023/07/03 08:43:01;;;;;;;0.80;0.80;;;;;;;21.46;41.31;101081.53;5070568;28;20032;-79
2023/07/03 08:45:45;;;;;;;0.10;0.10;;;;;;;21.33;41.85;101080.56;5073600;28;20020;-79
2023/07/03 08:48:16;;;;;;;0.03;0.03;;;;;;;21.39;42.50;101084.72;5073810;28;20490;-79
2023/07/03 08:50:49;;;;;;;0.10;0.10;;;;;;;21.43;42.87;101086.25;5064747;28;20086;-78
2023/07/03 08:53:20;;;;;;;0.10;0.10;;;;;;;21.15;42.49;101088.81;5055963;28;20511;-79
2023/07/03 08:58:42;;;;;;;0.10;0.10;;;;;;;20.95;43.53;101081.94;5060510;28;20418;-79
2023/07/03 09:07:01;;;;;;;0.08;0.08;;;;;;;20.80;42.79;101099.03;5162692;27;20372;-78
2023/07/03 09:09:37;;;;;;;0.10;0.10;;;;;;;20.90;42.96;101094.81;5148040;27;20061;-79
2023/07/03 09:14:48;;;;;;;0.10;0.10;;;;;;;20.67;43.88;101104.22;5109669;27;20407;-79
2023/07/03 09:17:14;;;;;;;0.00;0.00;;;;;;;20.55;44.43;101104.94;5119159;28;20039;-79
2023/07/03 09:19:46;;;;;;;0.20;0.20;;;;;;;20.73;44.71;101108.41;5117541;28;20092;-85
2023/07/03 09:22:25;;;;;;;0.10;0.10;;;;;;;20.62;44.64;101106.31;5098922;28;20118;-80
2023/07/03 09:24:53;;;;;;;1.10;0.93;;;;;;;20.55;44.75;101111.19;5103137;28;20036;-77
2023/07/03 09:27:23;;;;;;;0.10;0.10;;;;;;;20.42;45.27;101104.78;5103207;28;20092;-79
2023/07/03 09:29:49;;;;;;;0.10;0.10;;;;;;;20.41;45.12;101116.50;5102477;28;20047;-79
2023/07/03 09:32:32;;;;;;;0.30;0.30;;;;;;;20.48;45.55;101109.81;5102393;28;20066;-79
2023/07/03 09:35:20;;;;;;;0.85;0.85;;;;;;;20.61;45.51;101101.88;5101875;28;20438;-77
2023/07/03 09:40:28;;;;;;;1.65;1.55;;;;;;;20.88;45.86;101096.72;5120204;27;20375;-78
2023/07/03 09:42:54;;;;;;;0.08;0.08;;;;;;;21.18;45.16;101093.16;5107780;28;20403;-79
2023/07/03 09:45:28;;;;;;;0.10;0.10;;;;;;;21.36;45.12;101103.75;5108733;28;20059;-79
2023/07/03 09:47:57;;;;;;;0.45;0.45;;;;;;;21.26;45.39;101101.66;5109424;28;20051;-80
2023/07/03 09:53:05;;;;;;;0.10;0.10;;;;;;;21.32;44.85;101100.38;5118402;27;20407;-79
2023/07/03 09:55:32;;;;;;;0.15;0.15;;;;;;;21.59;44.63;101103.25;5101242;28;20025;-79
2023/07/03 09:57:58;;;;;;;0.40;0.40;;;;;;;21.80;43.86;101105.56;5098754;28;20095;-78
2023/07/03 10:00:25;;;;;;;2.65;0.50;;;;;;;22.03;43.15;101097.81;5095051;28;20036;-79
2023/07/03 10:02:54;;;;;;;0.10;0.10;;;;;;;22.22;43.00;101084.88;5082128;28;20174;-77
2023/07/03 10:05:31;;;;;;;0.10;0.10;;;;;;;22.18;42.07;101088.75;5084269;28;20055;-78
2023/07/03 10:08:02;;;;;;;2.17;1.40;;;;;;;22.06;42.26;101095.78;5078879;28;20096;-79
2023/07/03 10:10:31;;;;;;;0.00;0.00;;;;;;;21.92;42.17;101093.09;5080851;28;20028;-78
2023/07/03 10:13:07;;;;;;;0.00;0.00;;;;;;;21.89;43.07;101091.47;5080814;28;20077;-79
2023/07/03 10:15:37;;;;;;;0.10;0.10;;;;;;;21.91;42.76;101092.25;5080870;28;20040;-80
2023/07/03 10:18:13;;;;;;;0.10;0.10;;;;;;;21.97;43.04;101102.66;5081722;28;20079;-77
2023/07/03 10:20:43;;;;;;;0.10;0.10;;;;;;;21.89;42.99;101102.25;5078425;28;20052;-79
2023/07/03 10:23:17;;;;;;;0.38;0.38;;;;;;;21.87;42.15;101104.22;5081643;28;20190;-77
2023/07/03 10:25:50;;;;;;;0.25;0.25;;;;;;;21.94;41.23;101119.06;5081380;28;19997;-79
2023/07/03 10:28:22;;;;;;;0.52;0.52;;;;;;;21.96;41.20;101110.84;5080018;28;20045;-79
2023/07/03 10:30:53;;;;;;;0.00;0.00;;;;;;;21.86;40.55;101121.34;5079914;28;20134;-77
2023/07/03 10:33:26;;;;;;;0.00;0.00;;;;;;;21.91;40.65;101121.06;5076880;28;20032;-79
2023/07/03 10:35:53;;;;;;;0.10;0.10;;;;;;;21.76;40.36;101133.69;5078801;28;20029;-79
2023/07/03 10:41:12;;;;;;;0.30;0.30;;;;;;;21.44;41.30;101147.28;5123369;27;20389;-78
2023/07/03 10:43:46;;;;;;;0.10;0.10;;;;;;;21.36;42.20;101149.56;5110455;28;20024;-78
2023/07/03 10:46:24;;;;;;;0.15;0.15;;;;;;;21.39;42.02;101154.81;5111557;28;20039;-78
2023/07/03 10:48:53;;;;;;;0.43;0.32;;;;;;;21.53;41.86;101138.63;5107406;28;20492;-78
2023/07/03 10:51:32;;;;;;;0.30;0.30;;;;;;;21.53;41.62;101138.63;5104376;28;20120;-78
2023/07/03 10:54:11;;;;;;;0.10;0.10;;;;;;;21.53;40.99;101149.41;5104287;28;20536;-77
2023/07/03 10:56:43;;;;;;;2.20;1.35;;;;;;;21.88;40.58;101129.34;5104366;28;20024;-78
2023/07/03 10:59:36;;;;;;;0.30;0.30;;;;;;;22.19;40.20;101144.44;5107301;28;20027;-77
2023/07/03 11:10:25;;;;;;;0.10;0.10;;;;;;;22.35;40.21;101121.88;5107029;27;20791;-77
2023/07/03 11:13:02;;;;;;;0.20;0.20;;;;;;;22.38;39.70;101117.16;5089990;28;20058;-79
2023/07/03 11:15:44;;;;;;;0.10;0.10;;;;;;;22.11;39.64;101127.88;5090104;28;20035;-78
2023/07/03 11:18:28;;;;;;;1.50;1.40;;;;;;;21.91;40.00;101112.97;5091711;28;21072;-78
2023/07/03 11:21:24;;;;;;;0.15;0.15;;;;;;;21.90;40.28;101125.59;5094529;28;20051;-78
2023/07/03 11:24:16;;;;;;;0.30;0.30;;;;;;;21.95;39.05;101120.75;5090212;28;20032;-80
2023/07/03 11:26:52;;;;;;;0.00;0.00;;;;;;;21.97;39.38;101124.22;5093179;28;20020;-77
2023/07/03 11:29:19;;;;;;;0.10;0.10;;;;;;;21.77;39.40;101128.19;5090956;28;20071;-77
2023/07/03 11:31:46;;;;;;;0.00;0.00;;;;;;;21.85;39.34;101126.84;5089762;28;20028;-77
2023/07/03 11:34:15;;;;;;;0.10;0.10;;;;;;;22.08;38.57;101125.38;5090919;28;20063;-78
2023/07/03 11:42:11;;;;;;;0.00;0.00;;;;;;;22.51;38.84;101137.97;5112163;27;20331;-76
2023/07/03 11:44:58;;;;;;;4.90;1.27;;;;;;;22.40;35.61;101125.16;5101286;28;20490;-77
2023/07/03 11:47:28;;;;;;;0.00;0.00;;;;;;;22.51;36.82;101128.00;5102515;28;20024;-76
2023/07/03 11:50:00;;;;;;;0.10;0.10;;;;;;;22.78;37.06;101128.00;5113360;28;20458;-78
2023/07/03 11:52:30;;;;;;;0.10;0.10;;;;;;;22.60;34.62;101127.41;5109059;28;20063;-78
2023/07/03 11:55:01;;;;;;;0.10;0.10;;;;;;;22.66;35.26;101126.13;5114725;28;20077;-78
2023/07/03 12:03:02;;;;;;;0.10;0.10;;;;;;;22.79;33.77;101120.75;5073997;28;20407;-78
2023/07/03 12:11:03;;;;;;;0.10;0.10;;;;;;;22.29;35.13;101151.00;5104784;27;20148;-79
2023/07/03 12:13:50;;;;;;;0.20;0.20;;;;;;;22.02;35.95;101142.84;5096219;28;20028;-77
2023/07/03 12:16:22;;;;;;;0.00;0.00;;;;;;;21.89;36.65;101164.31;5094848;28;20028;-78
2023/07/03 12:19:00;;;;;;;0.10;0.10;;;;;;;21.88;37.72;101170.69;5090451;28;20028;-78
2023/07/03 12:21:32;;;;;;;0.10;0.10;;;;;;;21.78;37.42;101158.72;5093576;28;20366;-76